sensor_id;sensor_type;location;lat;lon;timestamp;P1;durP1;ratioP1;P2;durP2;ratioP2
25982;SDS011;13773;48.868;10.730;2022-07-17T00:00:17;2.50;;;1.70;;
25982;SDS011;13773;48.868;10.730;2022-07-17T00:02:43;2.30;;;2.10;;
25982;SDS011;13773;48.868;10.730;2022-07-17T00:05:09;2.37;;;2.07;;
25982;SDS011;13773;48.868;10.730;2022-07-17T00:07:35;3.23;;;2.00;;
25982;SDS011;13773;48.868;10.730;2022-07-17T00:10:00;2.93;;;2.10;;
25982;SDS011;13773;48.868;10.730;2022-07-17T00:12:26;2.03;;;1.83;;
25982;SDS011;13773;48.868;10.730;2022-07-17T00:14:52;3.33;;;2.30;;
25982;SDS011;13773;48.868;10.730;2022-07-17T00:17:18;3.47;;;2.03;;
25982;SDS011;13773;48.868;10.730;2022-07-17T00:19:46;4.63;;;2.40;;
25982;SDS011;13773;48.868;10.730;2022-07-17T00:22:12;2.70;;;2.50;;
25982;SDS011;13773;48.868;10.730;2022-07-17T00:24:38;2.50;;;2.30;;
25982;SDS011;13773;48.868;10.730;2022-07-17T00:27:03;2.60;;;2.40;;
25982;SDS011;13773;48.868;10.730;2022-07-17T00:29:29;2.90;;;2.63;;
25982;SDS011;13773;48.868;10.730;2022-07-17T00:31:55;3.60;;;2.93;;
25982;SDS011;13773;48.868;10.730;2022-07-17T00:34:20;6.20;;;3.33;;
25982;SDS011;13773;48.868;10.730;2022-07-17T00:36:46;5.13;;;2.80;;
25982;SDS011;13773;48.868;10.730;2022-07-17T00:39:12;3.83;;;3.40;;
25982;SDS011;13773;48.868;10.730;2022-07-17T00:41:37;6.30;;;3.60;;
25982;SDS011;13773;48.868;10.730;2022-07-17T00:44:08;4.40;;;3.23;;
25982;SDS011;13773;48.868;10.730;2022-07-17T00:46:37;7.13;;;3.67;;
25982;SDS011;13773;48.868;10.730;2022-07-17T00:49:04;5.60;;;3.53;;
25982;SDS011;13773;48.868;10.730;2022-07-17T00:51:32;4.57;;;3.57;;
25982;SDS011;13773;48.868;10.730;2022-07-17T00:53:58;6.10;;;3.70;;
25982;SDS011;13773;48.868;10.730;2022-07-17T00:56:24;4.83;;;3.53;;
25982;SDS011;13773;48.868;10.730;2022-07-17T00:58:52;5.40;;;3.70;;
25982;SDS011;13773;48.868;10.730;2022-07-17T01:01:17;4.93;;;3.10;;
25982;SDS011;13773;48.868;10.730;2022-07-17T01:03:43;3.20;;;2.90;;
25982;SDS011;13773;48.868;10.730;2022-07-17T01:06:09;5.93;;;3.10;;
25982;SDS011;13773;48.868;10.730;2022-07-17T01:08:35;3.77;;;3.20;;
25982;SDS011;13773;48.868;10.730;2022-07-17T01:11:02;4.03;;;3.07;;
25982;SDS011;13773;48.868;10.730;2022-07-17T01:13:29;3.30;;;3.00;;
25982;SDS011;13773;48.868;10.730;2022-07-17T01:15:55;3.73;;;3.33;;
25982;SDS011;13773;48.868;10.730;2022-07-17T01:18:22;4.93;;;3.60;;
25982;SDS011;13773;48.868;10.730;2022-07-17T01:20:48;5.00;;;3.13;;
25982;SDS011;13773;48.868;10.730;2022-07-17T01:23:15;4.73;;;3.10;;
25982;SDS011;13773;48.868;10.730;2022-07-17T01:25:42;5.40;;;3.17;;
25982;SDS011;13773;48.868;10.730;2022-07-17T01:28:09;4.33;;;3.10;;
25982;SDS011;13773;48.868;10.730;2022-07-17T01:30:35;4.00;;;3.00;;
25982;SDS011;13773;48.868;10.730;2022-07-17T01:33:01;3.23;;;2.90;;
25982;SDS011;13773;48.868;10.730;2022-07-17T01:35:28;5.37;;;3.30;;
25982;SDS011;13773;48.868;10.730;2022-07-17T01:37:54;4.63;;;3.40;;
25982;SDS011;13773;48.868;10.730;2022-07-17T01:40:19;3.77;;;3.30;;
25982;SDS011;13773;48.868;10.730;2022-07-17T01:42:46;2.77;;;2.57;;
25982;SDS011;13773;48.868;10.730;2022-07-17T01:45:15;3.17;;;2.60;;
25982;SDS011;13773;48.868;10.730;2022-07-17T01:47:43;2.60;;;2.40;;
25982;SDS011;13773;48.868;10.730;2022-07-17T01:50:09;2.90;;;2.60;;
25982;SDS011;13773;48.868;10.730;2022-07-17T01:52:38;3.50;;;2.70;;
25982;SDS011;13773;48.868;10.730;2022-07-17T01:55:06;4.37;;;3.53;;
25982;SDS011;13773;48.868;10.730;2022-07-17T01:57:33;4.43;;;2.60;;
25982;SDS011;13773;48.868;10.730;2022-07-17T01:59:59;2.87;;;2.67;;
25982;SDS011;13773;48.868;10.730;2022-07-17T02:02:26;3.37;;;2.60;;
25982;SDS011;13773;48.868;10.730;2022-07-17T02:04:52;3.00;;;2.70;;
25982;SDS011;13773;48.868;10.730;2022-07-17T02:07:17;3.33;;;2.57;;
25982;SDS011;13773;48.868;10.730;2022-07-17T02:09:43;2.77;;;2.50;;
25982;SDS011;13773;48.868;10.730;2022-07-17T02:12:09;2.50;;;2.30;;
25982;SDS011;13773;48.868;10.730;2022-07-17T02:14:34;2.70;;;2.40;;
25982;SDS011;13773;48.868;10.730;2022-07-17T02:17:00;2.70;;;2.50;;
25982;SDS011;13773;48.868;10.730;2022-07-17T02:19:26;3.43;;;2.87;;
25982;SDS011;13773;48.868;10.730;2022-07-17T02:21:52;4.27;;;2.80;;
25982;SDS011;13773;48.868;10.730;2022-07-17T02:24:18;2.60;;;2.40;;
25982;SDS011;13773;48.868;10.730;2022-07-17T02:26:44;2.93;;;2.73;;
25982;SDS011;13773;48.868;10.730;2022-07-17T02:29:10;2.67;;;2.33;;
25982;SDS011;13773;48.868;10.730;2022-07-17T02:31:36;3.40;;;2.30;;
25982;SDS011;13773;48.868;10.730;2022-07-17T02:34:01;2.47;;;2.20;;
25982;SDS011;13773;48.868;10.730;2022-07-17T02:36:27;2.80;;;2.23;;
25982;SDS011;13773;48.868;10.730;2022-07-17T02:38:53;3.07;;;2.77;;
25982;SDS011;13773;48.868;10.730;2022-07-17T02:41:19;3.10;;;2.80;;
25982;SDS011;13773;48.868;10.730;2022-07-17T02:43:45;3.30;;;3.00;;
25982;SDS011;13773;48.868;10.730;2022-07-17T02:46:10;3.20;;;2.90;;
25982;SDS011;13773;48.868;10.730;2022-07-17T02:48:38;3.67;;;3.23;;
25982;SDS011;13773;48.868;10.730;2022-07-17T02:51:05;5.93;;;3.57;;
25982;SDS011;13773;48.868;10.730;2022-07-17T02:53:31;6.30;;;3.50;;
25982;SDS011;13773;48.868;10.730;2022-07-17T02:55:57;5.40;;;3.37;;
25982;SDS011;13773;48.868;10.730;2022-07-17T02:58:23;4.07;;;3.70;;
25982;SDS011;13773;48.868;10.730;2022-07-17T03:00:49;4.80;;;3.80;;
25982;SDS011;13773;48.868;10.730;2022-07-17T03:03:14;5.00;;;4.50;;
25982;SDS011;13773;48.868;10.730;2022-07-17T03:05:40;5.47;;;4.63;;
25982;SDS011;13773;48.868;10.730;2022-07-17T03:08:06;4.40;;;4.00;;
25982;SDS011;13773;48.868;10.730;2022-07-17T03:10:31;4.03;;;3.63;;
25982;SDS011;13773;48.868;10.730;2022-07-17T03:12:57;3.73;;;3.33;;
25982;SDS011;13773;48.868;10.730;2022-07-17T03:15:23;3.93;;;3.33;;
25982;SDS011;13773;48.868;10.730;2022-07-17T03:17:49;5.63;;;3.40;;
25982;SDS011;13773;48.868;10.730;2022-07-17T03:20:15;4.73;;;4.23;;
25982;SDS011;13773;48.868;10.730;2022-07-17T03:22:40;4.87;;;3.80;;
25982;SDS011;13773;48.868;10.730;2022-07-17T03:25:06;4.13;;;3.77;;
25982;SDS011;13773;48.868;10.730;2022-07-17T03:27:32;4.80;;;4.33;;
25982;SDS011;13773;48.868;10.730;2022-07-17T03:29:59;5.73;;;4.67;;
25982;SDS011;13773;48.868;10.730;2022-07-17T03:32:24;5.93;;;4.50;;
25982;SDS011;13773;48.868;10.730;2022-07-17T03:34:50;5.60;;;5.00;;
25982;SDS011;13773;48.868;10.730;2022-07-17T03:37:16;6.20;;;4.70;;
25982;SDS011;13773;48.868;10.730;2022-07-17T03:39:42;8.10;;;5.07;;
25982;SDS011;13773;48.868;10.730;2022-07-17T03:42:08;5.60;;;5.10;;
25982;SDS011;13773;48.868;10.730;2022-07-17T03:44:33;8.03;;;5.23;;
25982;SDS011;13773;48.868;10.730;2022-07-17T03:46:59;5.63;;;5.13;;
25982;SDS011;13773;48.868;10.730;2022-07-17T03:49:25;5.30;;;4.43;;
25982;SDS011;13773;48.868;10.730;2022-07-17T03:51:51;5.40;;;4.53;;
25982;SDS011;13773;48.868;10.730;2022-07-17T03:54:16;4.00;;;3.47;;
25982;SDS011;13773;48.868;10.730;2022-07-17T03:56:42;3.43;;;2.90;;
25982;SDS011;13773;48.868;10.730;2022-07-17T03:59:10;7.93;;;3.40;;
25982;SDS011;13773;48.868;10.730;2022-07-17T04:01:35;2.67;;;2.47;;
25982;SDS011;13773;48.868;10.730;2022-07-17T04:04:01;3.50;;;3.20;;
25982;SDS011;13773;48.868;10.730;2022-07-17T04:06:27;3.33;;;3.03;;
25982;SDS011;13773;48.868;10.730;2022-07-17T04:08:53;3.03;;;2.73;;
25982;SDS011;13773;48.868;10.730;2022-07-17T04:11:19;5.47;;;3.03;;
25982;SDS011;13773;48.868;10.730;2022-07-17T04:13:45;3.03;;;2.80;;
25982;SDS011;13773;48.868;10.730;2022-07-17T04:16:11;4.20;;;3.20;;
25982;SDS011;13773;48.868;10.730;2022-07-17T04:18:37;5.27;;;4.03;;
25982;SDS011;13773;48.868;10.730;2022-07-17T04:21:06;4.60;;;4.20;;
25982;SDS011;13773;48.868;10.730;2022-07-17T04:23:34;5.03;;;4.63;;
25982;SDS011;13773;48.868;10.730;2022-07-17T04:26:00;5.50;;;4.97;;
25982;SDS011;13773;48.868;10.730;2022-07-17T04:28:26;6.30;;;5.03;;
25982;SDS011;13773;48.868;10.730;2022-07-17T04:30:52;7.87;;;5.23;;
25982;SDS011;13773;48.868;10.730;2022-07-17T04:33:18;7.40;;;5.53;;
25982;SDS011;13773;48.868;10.730;2022-07-17T04:35:44;5.63;;;5.03;;
25982;SDS011;13773;48.868;10.730;2022-07-17T04:38:09;7.93;;;6.00;;
25982;SDS011;13773;48.868;10.730;2022-07-17T04:40:36;8.40;;;6.30;;
25982;SDS011;13773;48.868;10.730;2022-07-17T04:43:03;6.70;;;5.73;;
25982;SDS011;13773;48.868;10.730;2022-07-17T04:45:30;7.80;;;6.00;;
25982;SDS011;13773;48.868;10.730;2022-07-17T04:47:56;7.40;;;6.07;;
25982;SDS011;13773;48.868;10.730;2022-07-17T04:50:22;6.33;;;5.60;;
25982;SDS011;13773;48.868;10.730;2022-07-17T04:52:47;6.60;;;5.90;;
25982;SDS011;13773;48.868;10.730;2022-07-17T04:55:13;6.33;;;5.67;;
25982;SDS011;13773;48.868;10.730;2022-07-17T04:57:39;6.80;;;6.20;;
25982;SDS011;13773;48.868;10.730;2022-07-17T05:00:05;7.07;;;6.43;;
25982;SDS011;13773;48.868;10.730;2022-07-17T05:02:32;7.93;;;6.60;;
25982;SDS011;13773;48.868;10.730;2022-07-17T05:04:59;7.20;;;6.50;;
25982;SDS011;13773;48.868;10.730;2022-07-17T05:07:25;10.07;;;7.10;;
25982;SDS011;13773;48.868;10.730;2022-07-17T05:09:51;7.50;;;6.80;;
25982;SDS011;13773;48.868;10.730;2022-07-17T05:12:17;8.77;;;7.23;;
25982;SDS011;13773;48.868;10.730;2022-07-17T05:14:43;8.20;;;6.67;;
25982;SDS011;13773;48.868;10.730;2022-07-17T05:17:08;8.23;;;7.43;;
25982;SDS011;13773;48.868;10.730;2022-07-17T05:19:34;7.27;;;6.40;;
25982;SDS011;13773;48.868;10.730;2022-07-17T05:22:01;8.13;;;6.20;;
25982;SDS011;13773;48.868;10.730;2022-07-17T05:24:27;6.27;;;5.13;;
25982;SDS011;13773;48.868;10.730;2022-07-17T05:26:52;7.00;;;5.33;;
25982;SDS011;13773;48.868;10.730;2022-07-17T05:29:19;5.40;;;4.90;;
25982;SDS011;13773;48.868;10.730;2022-07-17T05:31:44;5.20;;;4.50;;
25982;SDS011;13773;48.868;10.730;2022-07-17T05:34:10;4.90;;;4.40;;
25982;SDS011;13773;48.868;10.730;2022-07-17T05:36:36;5.33;;;4.83;;
25982;SDS011;13773;48.868;10.730;2022-07-17T05:39:02;5.63;;;5.00;;
25982;SDS011;13773;48.868;10.730;2022-07-17T05:41:28;4.97;;;4.47;;
25982;SDS011;13773;48.868;10.730;2022-07-17T05:43:54;5.10;;;4.60;;
25982;SDS011;13773;48.868;10.730;2022-07-17T05:46:19;5.10;;;4.60;;
25982;SDS011;13773;48.868;10.730;2022-07-17T05:48:45;5.80;;;4.68;;
25982;SDS011;13773;48.868;10.730;2022-07-17T05:51:11;5.78;;;4.60;;
25982;SDS011;13773;48.868;10.730;2022-07-17T05:53:36;6.05;;;4.70;;
25982;SDS011;13773;48.868;10.730;2022-07-17T05:56:02;6.68;;;4.97;;
25982;SDS011;13773;48.868;10.730;2022-07-17T05:58:28;6.28;;;4.85;;
25982;SDS011;13773;48.868;10.730;2022-07-17T06:00:54;6.00;;;5.05;;
25982;SDS011;13773;48.868;10.730;2022-07-17T06:03:19;5.82;;;5.03;;
25982;SDS011;13773;48.868;10.730;2022-07-17T06:05:45;5.40;;;4.90;;
25982;SDS011;13773;48.868;10.730;2022-07-17T06:08:11;5.80;;;5.13;;
25982;SDS011;13773;48.868;10.730;2022-07-17T06:10:37;5.63;;;4.57;;
25982;SDS011;13773;48.868;10.730;2022-07-17T06:13:03;5.45;;;4.93;;
25982;SDS011;13773;48.868;10.730;2022-07-17T06:15:29;5.90;;;5.07;;
25982;SDS011;13773;48.868;10.730;2022-07-17T06:17:59;5.37;;;4.97;;
25982;SDS011;13773;48.868;10.730;2022-07-17T06:20:26;4.80;;;4.40;;
25982;SDS011;13773;48.868;10.730;2022-07-17T06:22:51;5.05;;;4.20;;
25982;SDS011;13773;48.868;10.730;2022-07-17T06:25:17;4.50;;;4.10;;
25982;SDS011;13773;48.868;10.730;2022-07-17T06:27:43;5.10;;;4.65;;
25982;SDS011;13773;48.868;10.730;2022-07-17T06:30:09;6.57;;;4.40;;
25982;SDS011;13773;48.868;10.730;2022-07-17T06:32:37;6.80;;;4.25;;
25982;SDS011;13773;48.868;10.730;2022-07-17T06:35:03;6.10;;;4.40;;
25982;SDS011;13773;48.868;10.730;2022-07-17T06:37:29;6.47;;;3.90;;
25982;SDS011;13773;48.868;10.730;2022-07-17T06:39:55;4.63;;;4.32;;
25982;SDS011;13773;48.868;10.730;2022-07-17T06:42:21;5.80;;;4.10;;
25982;SDS011;13773;48.868;10.730;2022-07-17T06:44:46;6.65;;;4.38;;
25982;SDS011;13773;48.868;10.730;2022-07-17T06:47:12;4.40;;;3.67;;
25982;SDS011;13773;48.868;10.730;2022-07-17T06:49:38;5.43;;;4.10;;
25982;SDS011;13773;48.868;10.730;2022-07-17T06:52:04;4.03;;;3.40;;
25982;SDS011;13773;48.868;10.730;2022-07-17T06:54:30;3.95;;;3.65;;
25982;SDS011;13773;48.868;10.730;2022-07-17T06:56:56;4.05;;;3.65;;
25982;SDS011;13773;48.868;10.730;2022-07-17T06:59:22;4.85;;;3.30;;
25982;SDS011;13773;48.868;10.730;2022-07-17T07:01:48;4.28;;;3.97;;
25982;SDS011;13773;48.868;10.730;2022-07-17T07:04:13;4.63;;;3.83;;
25982;SDS011;13773;48.868;10.730;2022-07-17T07:06:39;4.10;;;3.67;;
25982;SDS011;13773;48.868;10.730;2022-07-17T07:09:05;4.95;;;3.67;;
25982;SDS011;13773;48.868;10.730;2022-07-17T07:11:31;5.28;;;3.17;;
25982;SDS011;13773;48.868;10.730;2022-07-17T07:13:56;3.78;;;3.38;;
25982;SDS011;13773;48.868;10.730;2022-07-17T07:16:22;3.35;;;3.05;;
25982;SDS011;13773;48.868;10.730;2022-07-17T07:18:48;3.70;;;3.38;;
25982;SDS011;13773;48.868;10.730;2022-07-17T07:21:14;3.70;;;3.22;;
25982;SDS011;13773;48.868;10.730;2022-07-17T07:23:39;5.43;;;3.17;;
25982;SDS011;13773;48.868;10.730;2022-07-17T07:26:05;2.60;;;2.40;;
25982;SDS011;13773;48.868;10.730;2022-07-17T07:28:31;4.15;;;3.15;;
25982;SDS011;13773;48.868;10.730;2022-07-17T07:30:58;4.72;;;2.60;;
25982;SDS011;13773;48.868;10.730;2022-07-17T07:33:24;2.83;;;2.63;;
25982;SDS011;13773;48.868;10.730;2022-07-17T07:35:50;2.67;;;2.47;;
25982;SDS011;13773;48.868;10.730;2022-07-17T07:38:16;3.37;;;2.57;;
25982;SDS011;13773;48.868;10.730;2022-07-17T07:40:42;2.47;;;2.27;;
25982;SDS011;13773;48.868;10.730;2022-07-17T07:43:07;3.40;;;2.20;;
25982;SDS011;13773;48.868;10.730;2022-07-17T07:45:33;3.73;;;2.00;;
25982;SDS011;13773;48.868;10.730;2022-07-17T07:47:59;1.63;;;1.47;;
25982;SDS011;13773;48.868;10.730;2022-07-17T07:50:25;2.90;;;2.17;;
25982;SDS011;13773;48.868;10.730;2022-07-17T07:52:52;3.50;;;2.07;;
25982;SDS011;13773;48.868;10.730;2022-07-17T07:55:18;3.73;;;2.10;;
25982;SDS011;13773;48.868;10.730;2022-07-17T07:57:44;3.57;;;1.73;;
25982;SDS011;13773;48.868;10.730;2022-07-17T08:00:10;2.43;;;1.93;;
25982;SDS011;13773;48.868;10.730;2022-07-17T08:02:37;1.80;;;1.70;;
25982;SDS011;13773;48.868;10.730;2022-07-17T08:05:03;1.93;;;1.67;;
25982;SDS011;13773;48.868;10.730;2022-07-17T08:07:29;1.87;;;1.77;;
25982;SDS011;13773;48.868;10.730;2022-07-17T08:09:56;2.87;;;1.40;;
25982;SDS011;13773;48.868;10.730;2022-07-17T08:12:23;1.47;;;1.37;;
25982;SDS011;13773;48.868;10.730;2022-07-17T08:14:49;1.90;;;1.40;;
25982;SDS011;13773;48.868;10.730;2022-07-17T08:17:15;1.50;;;1.30;;
25982;SDS011;13773;48.868;10.730;2022-07-17T08:19:42;1.43;;;1.33;;
25982;SDS011;13773;48.868;10.730;2022-07-17T08:22:08;1.90;;;1.50;;
25982;SDS011;13773;48.868;10.730;2022-07-17T08:24:33;2.47;;;1.30;;
25982;SDS011;13773;48.868;10.730;2022-07-17T08:26:59;1.63;;;1.30;;
25982;SDS011;13773;48.868;10.730;2022-07-17T08:29:25;1.50;;;1.40;;
25982;SDS011;13773;48.868;10.730;2022-07-17T08:31:50;3.00;;;1.60;;
25982;SDS011;13773;48.868;10.730;2022-07-17T08:34:18;1.70;;;1.60;;
25982;SDS011;13773;48.868;10.730;2022-07-17T08:36:44;1.60;;;1.50;;
25982;SDS011;13773;48.868;10.730;2022-07-17T08:39:10;3.03;;;1.80;;
25982;SDS011;13773;48.868;10.730;2022-07-17T08:41:38;10.40;;;2.17;;
25982;SDS011;13773;48.868;10.730;2022-07-17T08:44:05;2.47;;;1.80;;
25982;SDS011;13773;48.868;10.730;2022-07-17T08:46:35;2.17;;;1.80;;
25982;SDS011;13773;48.868;10.730;2022-07-17T08:49:03;2.03;;;1.50;;
25982;SDS011;13773;48.868;10.730;2022-07-17T08:51:32;3.10;;;1.50;;
25982;SDS011;13773;48.868;10.730;2022-07-17T08:53:58;1.93;;;1.17;;
25982;SDS011;13773;48.868;10.730;2022-07-17T08:56:25;4.70;;;2.10;;
25982;SDS011;13773;48.868;10.730;2022-07-17T08:58:52;2.50;;;1.70;;
25982;SDS011;13773;48.868;10.730;2022-07-17T09:01:19;2.33;;;1.40;;
25982;SDS011;13773;48.868;10.730;2022-07-17T09:03:58;3.03;;;1.40;;
25982;SDS011;13773;48.868;10.730;2022-07-17T09:06:37;1.53;;;1.30;;
25982;SDS011;13773;48.868;10.730;2022-07-17T09:09:04;3.87;;;1.80;;
25982;SDS011;13773;48.868;10.730;2022-07-17T09:11:48;2.17;;;1.40;;
25982;SDS011;13773;48.868;10.730;2022-07-17T09:14:15;1.47;;;1.37;;
25982;SDS011;13773;48.868;10.730;2022-07-17T09:16:49;1.60;;;1.50;;
25982;SDS011;13773;48.868;10.730;2022-07-17T09:19:24;3.73;;;1.47;;
25982;SDS011;13773;48.868;10.730;2022-07-17T09:21:51;2.50;;;1.63;;
25982;SDS011;13773;48.868;10.730;2022-07-17T09:24:36;2.40;;;1.33;;
25982;SDS011;13773;48.868;10.730;2022-07-17T09:27:06;1.40;;;1.23;;
25982;SDS011;13773;48.868;10.730;2022-07-17T09:29:32;2.00;;;1.23;;
25982;SDS011;13773;48.868;10.730;2022-07-17T09:31:57;3.30;;;1.60;;
25982;SDS011;13773;48.868;10.730;2022-07-17T09:34:23;3.03;;;1.33;;
25982;SDS011;13773;48.868;10.730;2022-07-17T09:37:01;2.93;;;1.40;;
25982;SDS011;13773;48.868;10.730;2022-07-17T09:39:37;1.47;;;1.37;;
25982;SDS011;13773;48.868;10.730;2022-07-17T09:42:03;1.23;;;1.13;;
25982;SDS011;13773;48.868;10.730;2022-07-17T09:44:29;4.00;;;1.53;;
25982;SDS011;13773;48.868;10.730;2022-07-17T09:46:55;1.40;;;1.30;;
25982;SDS011;13773;48.868;10.730;2022-07-17T09:49:22;2.33;;;1.60;;
25982;SDS011;13773;48.868;10.730;2022-07-17T09:51:51;1.30;;;1.30;;
25982;SDS011;13773;48.868;10.730;2022-07-17T09:54:20;1.47;;;1.33;;
25982;SDS011;13773;48.868;10.730;2022-07-17T09:56:49;1.60;;;1.50;;
25982;SDS011;13773;48.868;10.730;2022-07-17T09:59:16;3.17;;;1.60;;
25982;SDS011;13773;48.868;10.730;2022-07-17T10:01:43;1.93;;;1.73;;
25982;SDS011;13773;48.868;10.730;2022-07-17T10:04:12;2.57;;;1.57;;
25982;SDS011;13773;48.868;10.730;2022-07-17T10:06:38;1.43;;;1.27;;
25982;SDS011;13773;48.868;10.730;2022-07-17T10:09:04;2.07;;;1.87;;
25982;SDS011;13773;48.868;10.730;2022-07-17T10:11:31;4.00;;;1.50;;
25982;SDS011;13773;48.868;10.730;2022-07-17T10:14:05;1.87;;;1.40;;
25982;SDS011;13773;48.868;10.730;2022-07-17T10:16:35;2.37;;;1.63;;
25982;SDS011;13773;48.868;10.730;2022-07-17T10:19:03;1.97;;;1.30;;
25982;SDS011;13773;48.868;10.730;2022-07-17T10:21:51;1.87;;;1.30;;
25982;SDS011;13773;48.868;10.730;2022-07-17T10:24:24;1.37;;;1.27;;
25982;SDS011;13773;48.868;10.730;2022-07-17T10:26:51;2.77;;;1.70;;
25982;SDS011;13773;48.868;10.730;2022-07-17T10:31:59;1.87;;;1.50;;
25982;SDS011;13773;48.868;10.730;2022-07-17T10:40:18;2.90;;;1.60;;
25982;SDS011;13773;48.868;10.730;2022-07-17T10:47:55;2.17;;;1.30;;
25982;SDS011;13773;48.868;10.730;2022-07-17T10:50:23;1.70;;;1.60;;
25982;SDS011;13773;48.868;10.730;2022-07-17T10:52:58;1.90;;;1.50;;
25982;SDS011;13773;48.868;10.730;2022-07-17T10:55:30;1.23;;;1.20;;
25982;SDS011;13773;48.868;10.730;2022-07-17T10:57:56;1.75;;;1.50;;
25982;SDS011;13773;48.868;10.730;2022-07-17T11:00:22;3.10;;;1.47;;
25982;SDS011;13773;48.868;10.730;2022-07-17T11:02:49;1.40;;;1.30;;
25982;SDS011;13773;48.868;10.730;2022-07-17T11:05:14;1.30;;;1.20;;
25982;SDS011;13773;48.868;10.730;2022-07-17T11:07:51;2.50;;;1.30;;
25982;SDS011;13773;48.868;10.730;2022-07-17T11:10:22;1.87;;;1.40;;
25982;SDS011;13773;48.868;10.730;2022-07-17T11:13:06;2.37;;;1.47;;
25982;SDS011;13773;48.868;10.730;2022-07-17T11:15:46;1.57;;;1.40;;
25982;SDS011;13773;48.868;10.730;2022-07-17T11:18:15;2.20;;;1.50;;
25982;SDS011;13773;48.868;10.730;2022-07-17T11:20:49;1.77;;;1.27;;
25982;SDS011;13773;48.868;10.730;2022-07-17T11:23:23;3.07;;;1.50;;
25982;SDS011;13773;48.868;10.730;2022-07-17T11:25:54;3.27;;;1.50;;
25982;SDS011;13773;48.868;10.730;2022-07-17T11:28:31;2.23;;;1.37;;
25982;SDS011;13773;48.868;10.730;2022-07-17T11:31:03;1.50;;;1.30;;
25982;SDS011;13773;48.868;10.730;2022-07-17T11:33:47;1.57;;;1.23;;
25982;SDS011;13773;48.868;10.730;2022-07-17T11:38:49;2.80;;;1.52;;
25982;SDS011;13773;48.868;10.730;2022-07-17T11:41:16;2.37;;;1.80;;
25982;SDS011;13773;48.868;10.730;2022-07-17T11:43:45;1.38;;;1.20;;
25982;SDS011;13773;48.868;10.730;2022-07-17T11:46:13;2.83;;;1.40;;
25982;SDS011;13773;48.868;10.730;2022-07-17T11:48:42;1.40;;;1.30;;
25982;SDS011;13773;48.868;10.730;2022-07-17T11:51:09;1.30;;;1.20;;
25982;SDS011;13773;48.868;10.730;2022-07-17T11:53:36;2.53;;;1.23;;
25982;SDS011;13773;48.868;10.730;2022-07-17T11:56:03;2.58;;;1.50;;
25982;SDS011;13773;48.868;10.730;2022-07-17T11:58:40;1.13;;;1.10;;
25982;SDS011;13773;48.868;10.730;2022-07-17T12:01:13;1.30;;;1.20;;
25982;SDS011;13773;48.868;10.730;2022-07-17T12:03:40;1.63;;;1.20;;
25982;SDS011;13773;48.868;10.730;2022-07-17T12:06:06;1.58;;;1.40;;
25982;SDS011;13773;48.868;10.730;2022-07-17T12:08:32;1.58;;;1.48;;
25982;SDS011;13773;48.868;10.730;2022-07-17T12:11:02;1.52;;;1.40;;
25982;SDS011;13773;48.868;10.730;2022-07-17T12:13:48;2.40;;;1.55;;
25982;SDS011;13773;48.868;10.730;2022-07-17T12:16:20;2.45;;;1.50;;
25982;SDS011;13773;48.868;10.730;2022-07-17T12:18:58;1.50;;;1.40;;
25982;SDS011;13773;48.868;10.730;2022-07-17T12:21:26;1.30;;;1.20;;
25982;SDS011;13773;48.868;10.730;2022-07-17T12:23:56;4.05;;;1.30;;
25982;SDS011;13773;48.868;10.730;2022-07-17T12:26:24;1.50;;;1.40;;
25982;SDS011;13773;48.868;10.730;2022-07-17T12:28:50;2.40;;;1.40;;
25982;SDS011;13773;48.868;10.730;2022-07-17T12:31:15;2.97;;;1.48;;
25982;SDS011;13773;48.868;10.730;2022-07-17T12:33:41;1.50;;;1.40;;
25982;SDS011;13773;48.868;10.730;2022-07-17T12:36:08;1.30;;;1.20;;
25982;SDS011;13773;48.868;10.730;2022-07-17T12:38:34;2.13;;;1.30;;
25982;SDS011;13773;48.868;10.730;2022-07-17T12:41:00;1.25;;;1.15;;
25982;SDS011;13773;48.868;10.730;2022-07-17T12:43:26;2.15;;;1.27;;
25982;SDS011;13773;48.868;10.730;2022-07-17T12:45:52;3.13;;;1.38;;
25982;SDS011;13773;48.868;10.730;2022-07-17T12:48:17;1.23;;;1.13;;
25982;SDS011;13773;48.868;10.730;2022-07-17T12:50:43;1.13;;;1.10;;
25982;SDS011;13773;48.868;10.730;2022-07-17T12:53:09;1.70;;;1.30;;
25982;SDS011;13773;48.868;10.730;2022-07-17T12:55:35;1.23;;;1.10;;
25982;SDS011;13773;48.868;10.730;2022-07-17T12:58:02;2.08;;;1.10;;
25982;SDS011;13773;48.868;10.730;2022-07-17T13:00:28;2.15;;;1.30;;
25982;SDS011;13773;48.868;10.730;2022-07-17T13:02:54;1.67;;;1.40;;
25982;SDS011;13773;48.868;10.730;2022-07-17T13:05:20;1.55;;;1.13;;
25982;SDS011;13773;48.868;10.730;2022-07-17T13:07:46;1.73;;;1.40;;
25982;SDS011;13773;48.868;10.730;2022-07-17T13:10:12;1.35;;;1.25;;
25982;SDS011;13773;48.868;10.730;2022-07-17T13:12:37;1.35;;;1.25;;
25982;SDS011;13773;48.868;10.730;2022-07-17T13:15:03;2.47;;;1.33;;
25982;SDS011;13773;48.868;10.730;2022-07-17T13:17:30;1.20;;;1.10;;
25982;SDS011;13773;48.868;10.730;2022-07-17T13:19:56;2.22;;;1.30;;
25982;SDS011;13773;48.868;10.730;2022-07-17T13:22:21;1.45;;;1.35;;
25982;SDS011;13773;48.868;10.730;2022-07-17T13:24:47;1.35;;;1.25;;
25982;SDS011;13773;48.868;10.730;2022-07-17T13:27:13;1.65;;;1.55;;
25982;SDS011;13773;48.868;10.730;2022-07-17T13:29:38;1.38;;;1.20;;
25982;SDS011;13773;48.868;10.730;2022-07-17T13:32:04;1.50;;;1.40;;
25982;SDS011;13773;48.868;10.730;2022-07-17T13:34:30;1.60;;;1.30;;
25982;SDS011;13773;48.868;10.730;2022-07-17T13:36:56;2.20;;;1.45;;
25982;SDS011;13773;48.868;10.730;2022-07-17T13:39:22;1.70;;;1.45;;
25982;SDS011;13773;48.868;10.730;2022-07-17T13:41:49;1.80;;;1.20;;
25982;SDS011;13773;48.868;10.730;2022-07-17T13:44:15;2.75;;;1.27;;
25982;SDS011;13773;48.868;10.730;2022-07-17T13:46:40;1.73;;;1.52;;
25982;SDS011;13773;48.868;10.730;2022-07-17T13:49:06;1.60;;;1.40;;
25982;SDS011;13773;48.868;10.730;2022-07-17T13:51:32;1.35;;;1.25;;
25982;SDS011;13773;48.868;10.730;2022-07-17T13:54:00;1.50;;;1.40;;
25982;SDS011;13773;48.868;10.730;2022-07-17T13:56:27;2.35;;;1.50;;
25982;SDS011;13773;48.868;10.730;2022-07-17T13:58:52;1.30;;;1.20;;
25982;SDS011;13773;48.868;10.730;2022-07-17T14:01:18;2.10;;;1.45;;
25982;SDS011;13773;48.868;10.730;2022-07-17T14:03:44;2.78;;;1.60;;
25982;SDS011;13773;48.868;10.730;2022-07-17T14:06:10;2.00;;;1.20;;
25982;SDS011;13773;48.868;10.730;2022-07-17T14:08:35;1.42;;;1.33;;
25982;SDS011;13773;48.868;10.730;2022-07-17T14:11:02;2.47;;;1.40;;
25982;SDS011;13773;48.868;10.730;2022-07-17T14:13:28;6.80;;;1.42;;
25982;SDS011;13773;48.868;10.730;2022-07-17T14:15:54;1.60;;;1.50;;
25982;SDS011;13773;48.868;10.730;2022-07-17T14:18:20;1.52;;;1.30;;
25982;SDS011;13773;48.868;10.730;2022-07-17T14:20:46;2.13;;;1.20;;
25982;SDS011;13773;48.868;10.730;2022-07-17T14:23:12;2.40;;;1.20;;
25982;SDS011;13773;48.868;10.730;2022-07-17T14:25:38;2.15;;;1.45;;
25982;SDS011;13773;48.868;10.730;2022-07-17T14:28:04;1.45;;;1.20;;
25982;SDS011;13773;48.868;10.730;2022-07-17T14:30:29;2.45;;;1.02;;
25982;SDS011;13773;48.868;10.730;2022-07-17T14:32:57;1.73;;;1.45;;
25982;SDS011;13773;48.868;10.730;2022-07-17T14:35:23;1.65;;;1.52;;
25982;SDS011;13773;48.868;10.730;2022-07-17T14:37:49;2.22;;;1.20;;
25982;SDS011;13773;48.868;10.730;2022-07-17T14:40:14;2.25;;;1.50;;
25982;SDS011;13773;48.868;10.730;2022-07-17T14:42:40;2.95;;;1.23;;
25982;SDS011;13773;48.868;10.730;2022-07-17T14:45:07;4.32;;;1.00;;
25982;SDS011;13773;48.868;10.730;2022-07-17T14:47:33;1.52;;;1.27;;